Estación Meteorológica Peña el Pijo (Robertgarden) [ 12/11/18 09:32:55 CET ]

Fecha Hora Presion(HPa) Temp (°C) Humedad % Rocio (°C) Viento ( m/s) Direccion Lluvia 1Hora(mm) Lluvia 24H(mm) LLuvia Total(mm)
2018-Feb-04 01:01:42 1002.700 1.3 63 -5.0       0.51 70.96
2018-Feb-04 02:01:39 1001.500 1.5 63 -4.8       0.51 70.96
2018-Feb-04 03:01:47 1000.800 2.3 61 -4.4       0.51 70.96
2018-Feb-04 04:01:45 999.800 1.8 61 -4.9       0.51 70.96
2018-Feb-04 05:02:31 999.000 1.6 65 -4.3       0.51 70.96
2018-Feb-04 06:02:10 998.100 1.3 67 -4.2       0.51 70.96
2018-Feb-04 07:01:57 997.600 1.4 71 -3.3       0.51 70.96
2018-Feb-04 08:01:53 997.400 2.8 73 -1.6       0.51 70.96
2018-Feb-04 09:01:46 997.100 1.8 77 -1.8       0.51 70.96
2018-Feb-04 10:01:43 996.900 2.2 80 -0.9     0.51 1.03 71.48
2018-Feb-04 11:01:48 996.900 3.3 80 0.2       0.51 71.48
2018-Feb-04 12:01:44 996.900 3.4 78 -0.1       0.51 71.48
2018-Feb-04 13:01:49 996.500 4.4 74 0.1 2.7 WNW   0.51 71.48
2018-Feb-04 14:01:56 995.700 4.8 71 -0.0       0.51 71.48
2018-Feb-04 15:01:40 995.100 4.9 68 -0.5       0.51 71.48
2018-Feb-04 16:01:40 994.800 6.1 62 -0.7 1.8 NW   0.51 71.48
2018-Feb-04 17:01:48 994.300 5.8 58 -1.9       0.51 71.48
2018-Feb-04 18:01:47 994.300 4.1 62 -2.6       0.51 71.48
2018-Feb-04 19:01:33 994.500 2.5 66 -3.2       0.51 71.48
2018-Feb-04 20:01:37 994.600 1.9 70 -3.0       0.51 71.48
2018-Feb-04 21:01:53 994.500 1.3 75 -2.7       0.51 71.48
2018-Feb-04 22:01:35 994.300 0.6 79 -2.6       0.51 71.48
2018-Feb-04 23:01:53 993.600 0.6 81 -2.3       0.51 71.48

Temperatura Máxima:    Temperatura Mínima:
Presión Máxima:1002.700 Hpa    Presión Mínima:993.600 Hpa


Volver